Meteo Giornale » Osservazioni meteo Stati Uniti (USA) » Hettinger
ore: 11:53 - Osservazioni Meteo Hettinger
Lat. 46° 0' N Lon. 102° 38' W Alt. 824 metri s.l.m.
22 °C
Sereno
Temp. 24 Ore
9 °C
29 °C
Ovest
24 Km/h
Dew point 8 °C
Umidità 40 %
Visibilità 10 Km
Il sole sorge alle ore 06:10
Il sole tramonta alle ore 19:31
| Data e Ora | Cielo e Fenomeni | T °C | DP °C | Um. % | Pres. hPa | Vis. km | Vento km/h | |
|---|---|---|---|---|---|---|---|---|
| Oggi h: 11:53 | Sereno | 22 | 8 | 40 | 1016 | 10 | O 24 | |
| Oggi h: 10:53 | Sereno | 21 | 9 | 46 | 1016 | 10 | O 18.5 | |
| Oggi h: 09:53 | Sereno | 18 | 9 | 55 | 1016 | 10 | O 24 | |
| Oggi h: 08:53 | Sereno | 17 | 11 | 67 | 1016 | 10 | O 20.3 | |
| Oggi h: 07:53 | Sereno | 13 | 10 | 81 | 1015 | 10 | O 11.1 | |
| Oggi h: 06:53 | Sereno | 10 | 7 | 81 | 1014 | 10 | O 7.4 | |
| Oggi h: 05:53 | Sereno | 9 | 7 | 87 | 1014 | 10 | N 5.5 | |
| Oggi h: 04:53 | Sereno | 10 | 8 | 87 | 1014 | 10 | N 0 | |
| Oggi h: 03:53 | Sereno | 9 | 8 | 93 | 1013 | 10 | N 0 | |
| Oggi h: 02:53 | Sereno | 9 | 8 | 93 | 1013 | 10 | O 7.4 | |
| Oggi h: 01:53 | Sereno | 10 | 9 | 93 | 1013 | 10 | N 5.5 | |
| Oggi h: 00:53 | Sereno | 10 | 9 | 93 | 1013 | 10 | N 0 | |
| Ieri h: 23:53 | Sereno | 11 | 9 | 87 | 1013 | 10 | N 5.5 | |
| Ieri h: 22:53 | Sereno | 10 | 9 | 93 | 1013 | 10 | N 0 | |
| Ieri h: 21:53 | Sereno | 9 | 9 | 100 | 1013 | 10 | O/NO 9.3 | |
| Ieri h: 20:53 | Sereno | 12 | 11 | 93 | 1012 | 10 | N 5.5 | |
| Ieri h: 19:53 | Nuvoloso | 13 | 12 | 93 | 1010 | 10 | O/NO 11.1 | |
| Ieri h: 18:53 | Sereno | 14 | 12 | 87 | 1009 | 10 | N/NO 22.2 | |
| Ieri h: 17:53 | Pioggia | 14 | 12 | 87 | 1010 | 10 | NO 38.8 | |
| Ieri h: 17:10 | Coperto | 15 | 13 | 87 | 1011 | 10 | NO 51.8 | |
| Ieri h: 17:01 | Temporale nelle vicinanze Pioggia | 15 | 13 | 87 | 1010 | 10 | NO 57.3 | |
| Ieri h: 16:53 | Temporale Foschia | 15 | 13 | 87 | 1011 | 8 | O/NO 57.3 | |
| Ieri h: 16:42 | Temporale | 15 | 14 | 93 | 1011 | 0 | O 64.8 | |
| Ieri h: 15:53 | Temporale nelle vicinanze | 28 | 16 | 48 | 1006 | 10 | N 0 | |
| Ieri h: 14:53 | Sereno | 29 | 16 | 45 | 1007 | 10 | S/SE 7.4 | |
| Ieri h: 13:53 | Sereno | 28 | 17 | 51 | 1007 | 10 | S 11.1 | |
| Ieri h: 12:53 | Sereno | 27 | 18 | 57 | 1008 | 10 | O/SO 11.1 | |



